Time;durP1;ratioP1;P1;durP2;ratioP2;P2;SDS_P1;SDS_P2;PMS_P1;PMS_P2;Temp;Humidity;BMP_temperature;BMP_pressure;BME280_temperature;BME280_humidity;BME280_pressure;Samples;Min_cycle;Max_cycle;Signal;HPM_P1;HPM_P2
2023/04/10 00:00:58;;;;;;;0.50;0.30;;;18.10;68.50;;;;;;5058685;28;20035;-67
2023/04/10 00:03:25;;;;;;;1.63;0.38;;;18.10;68.10;;;;;;5064416;28;20028;-69
2023/04/10 00:05:53;;;;;;;1.65;0.40;;;18.00;67.00;;;;;;5062760;28;20068;-68
2023/04/10 00:08:22;;;;;;;0.82;0.30;;;18.00;67.50;;;;;;5070316;28;20017;-68
2023/04/10 00:10:50;;;;;;;0.63;0.30;;;18.00;68.70;;;;;;5051580;28;20028;-68
2023/04/10 00:13:18;;;;;;;1.00;0.40;;;18.20;68.70;;;;;;5056446;28;20043;-67
2023/04/10 00:15:45;;;;;;;1.58;0.40;;;18.30;66.60;;;;;;5051281;28;20086;-67
2023/04/10 00:18:13;;;;;;;0.93;0.30;;;18.30;62.80;;;;;;5060548;28;20025;-68
2023/04/10 00:20:40;;;;;;;3.60;0.50;;;18.30;64.60;;;;;;5057407;28;20025;-68
2023/04/10 00:23:08;;;;;;;0.85;0.32;;;18.20;64.50;;;;;;5060796;28;20032;-67
2023/04/10 00:25:35;;;;;;;2.20;0.70;;;18.30;67.20;;;;;;5053936;28;20032;-71
2023/04/10 00:28:03;;;;;;;0.63;0.28;;;18.30;66.90;;;;;;5053301;28;20088;-70
2023/04/10 00:30:30;;;;;;;1.08;0.73;;;18.50;64.00;;;;;;5054480;28;20429;-71
2023/04/10 00:32:58;;;;;;;0.45;0.28;;;18.40;59.00;;;;;;5068567;28;20021;-72
2023/04/10 00:35:25;;;;;;;1.17;0.40;;;18.50;59.70;;;;;;5070932;28;20040;-74
2023/04/10 00:37:55;;;;;;;0.63;0.25;;;18.70;60.90;;;;;;5060294;28;20024;-72
2023/04/10 00:40:22;;;;;;;1.55;0.25;;;18.80;62.30;;;;;;5050860;28;20037;-74
2023/04/10 00:42:50;;;;;;;0.88;0.40;;;18.90;63.00;;;;;;5058535;28;20025;-76
2023/04/10 00:45:17;;;;;;;1.48;0.22;;;19.00;62.10;;;;;;5055978;28;20036;-74
2023/04/10 00:47:45;;;;;;;0.63;0.25;;;19.00;61.40;;;;;;5056659;28;20044;-77
2023/04/10 00:50:12;;;;;;;1.27;0.40;;;19.00;59.00;;;;;;5054730;28;20042;-75
2023/04/10 00:52:40;;;;;;;0.55;0.30;;;19.10;58.20;;;;;;5068315;28;20505;-73
2023/04/10 00:55:08;;;;;;;0.38;0.30;;;19.10;59.80;;;;;;5051884;28;20028;-71
2023/04/10 00:57:37;;;;;;;1.23;0.40;;;19.30;58.40;;;;;;5060623;28;20029;-68
2023/04/10 01:00:05;;;;;;;2.53;0.40;;;19.20;60.40;;;;;;5058641;28;20024;-69
2023/04/10 01:02:33;;;;;;;0.55;0.30;;;18.90;58.90;;;;;;5067980;28;20449;-69
2023/04/10 01:05:01;;;;;;;0.65;0.30;;;18.40;58.70;;;;;;5070684;28;20075;-70
2023/04/10 01:07:38;;;;;;;1.35;0.20;;;18.40;59.10;;;;;;5067446;28;20514;-74
2023/04/10 01:10:19;;;;;;;0.43;0.30;;;18.60;57.70;;;;;;5070361;28;20037;-68
2023/04/10 01:12:53;;;;;;;1.95;0.35;;;18.60;58.10;;;;;;5063092;28;20075;-65
2023/04/10 01:15:30;;;;;;;1.13;0.50;;;18.60;59.00;;;;;;5056539;28;20107;-64
2023/04/10 01:18:19;;;;;;;2.58;0.30;;;18.70;58.90;;;;;;5056502;28;20017;-63
2023/04/10 01:20:49;;;;;;;1.35;0.40;;;18.60;57.30;;;;;;5054922;28;20048;-63
2023/04/10 01:23:38;;;;;;;1.05;0.40;;;18.40;59.30;;;;;;5055030;28;20389;-64
2023/04/10 01:26:16;;;;;;;1.55;0.55;;;18.30;61.10;;;;;;5057094;28;20103;-63
2023/04/10 01:28:46;;;;;;;0.90;0.38;;;18.40;65.10;;;;;;5067057;28;20017;-64
2023/04/10 01:31:37;;;;;;;2.08;0.50;;;18.70;62.40;;;;;;5053917;28;20028;-64
2023/04/10 01:34:15;;;;;;;2.25;0.80;;;19.00;57.30;;;;;;5064770;28;20125;-64
2023/04/10 01:36:52;;;;;;;4.03;0.60;;;19.20;59.80;;;;;;5057115;28;20025;-64
2023/04/10 01:39:22;;;;;;;4.30;0.70;;;19.30;59.80;;;;;;5052170;28;20039;-63
2023/04/10 01:41:51;;;;;;;1.15;0.30;;;19.50;57.20;;;;;;5052581;28;20955;-63
2023/04/10 01:44:26;;;;;;;2.08;0.30;;;19.40;58.20;;;;;;5069372;28;20052;-65
2023/04/10 01:46:55;;;;;;;1.73;0.40;;;19.30;59.60;;;;;;5059057;28;20429;-63
2023/04/10 01:49:25;;;;;;;3.60;0.50;;;19.40;59.00;;;;;;5054471;28;20028;-63
2023/04/10 01:51:57;;;;;;;0.65;0.30;;;19.50;58.90;;;;;;5050205;28;20903;-64
2023/04/10 01:54:35;;;;;;;3.20;0.65;;;19.60;56.70;;;;;;5053204;28;20304;-63
2023/04/10 01:57:03;;;;;;;0.98;0.30;;;19.90;61.10;;;;;;5057100;28;20036;-62
2023/04/10 01:59:31;;;;;;;1.27;0.32;;;20.00;58.80;;;;;;5068898;28;20042;-63
2023/04/10 02:02:00;;;;;;;1.38;0.30;;;20.20;58.10;;;;;;5066213;28;20100;-63
2023/04/10 02:04:27;;;;;;;0.15;0.15;;;20.30;57.00;;;;;;5064037;28;20452;-63
2023/04/10 02:07:40;;;;;;;1.08;0.45;;;20.40;56.20;;;;;;5071164;28;20040;-64
2023/04/10 02:10:20;;;;;;;0.70;0.30;;;20.80;57.00;;;;;;5047974;28;20504;-64
2023/04/10 02:12:54;;;;;;;2.25;0.50;;;21.10;56.50;;;;;;5068448;28;20032;-65
2023/04/10 02:15:25;;;;;;;0.65;0.25;;;21.40;54.30;;;;;;5068671;28;20036;-64
2023/04/10 02:17:54;;;;;;;1.42;0.28;;;21.30;53.90;;;;;;5052295;28;20037;-66
2023/04/10 02:20:24;;;;;;;0.77;0.30;;;21.30;53.20;;;;;;5058605;28;20031;-66
2023/04/10 02:22:52;;;;;;;1.35;0.40;;;21.20;52.10;;;;;;5068153;28;20035;-66
2023/04/10 02:25:19;;;;;;;2.15;0.40;;;21.30;56.00;;;;;;5066586;28;20517;-67
2023/04/10 02:27:47;;;;;;;0.28;0.15;;;21.60;54.20;;;;;;5061518;28;20055;-66
2023/04/10 02:30:15;;;;;;;1.83;0.28;;;21.70;53.90;;;;;;5064759;28;20028;-67
2023/04/10 02:32:42;;;;;;;1.83;0.40;;;21.70;52.30;;;;;;5062807;28;20017;-67
2023/04/10 02:35:10;;;;;;;0.43;0.22;;;21.70;50.70;;;;;;5052504;28;20037;-67
2023/04/10 02:37:38;;;;;;;1.20;0.40;;;21.70;51.70;;;;;;5071508;28;20050;-66
2023/04/10 02:40:06;;;;;;;1.55;0.20;;;21.60;48.70;;;;;;5065306;28;20033;-65
2023/04/10 02:42:34;;;;;;;2.97;0.77;;;21.60;49.40;;;;;;5069490;28;20021;-66
2023/04/10 02:45:02;;;;;;;3.80;0.93;;;21.50;47.40;;;;;;5067243;28;20044;-67
2023/04/10 02:47:29;;;;;;;1.35;0.45;;;21.30;49.60;;;;;;5064414;28;20035;-66
2023/04/10 02:49:57;;;;;;;0.82;0.30;;;21.10;48.90;;;;;;5056016;28;20048;-67
2023/04/10 02:52:24;;;;;;;0.55;0.17;;;21.00;48.90;;;;;;5049459;28;20025;-70
2023/04/10 02:54:52;;;;;;;0.65;0.32;;;20.90;49.50;;;;;;5053499;28;20029;-66
2023/04/10 02:57:20;;;;;;;0.57;0.22;;;20.90;51.20;;;;;;5050415;28;20509;-72
2023/04/10 02:59:50;;;;;;;1.58;0.50;;;21.00;48.90;;;;;;5047771;28;20029;-69
2023/04/10 03:02:18;;;;;;;0.68;0.20;;;21.00;47.80;;;;;;5049460;28;20029;-70
2023/04/10 03:04:45;;;;;;;1.98;0.40;;;21.00;48.60;;;;;;5060087;28;20120;-72
2023/04/10 03:07:13;;;;;;;1.65;0.10;;;21.00;48.70;;;;;;5062562;28;20458;-73
2023/04/10 03:09:41;;;;;;;0.80;0.30;;;21.10;47.00;;;;;;5067218;28;20028;-72
2023/04/10 03:12:08;;;;;;;1.40;0.50;;;21.20;50.40;;;;;;5056743;28;20013;-74
2023/04/10 03:14:35;;;;;;;2.20;1.35;;;21.30;50.10;;;;;;5066276;28;20032;-78
2023/04/10 03:17:03;;;;;;;4.10;1.40;;;21.50;50.00;;;;;;5069128;28;20020;-71
2023/04/10 03:19:31;;;;;;;1.27;0.73;;;21.70;49.50;;;;;;5071574;28;20028;-69
2023/04/10 03:21:59;;;;;;;0.93;0.30;;;21.80;47.60;;;;;;5056038;28;20035;-77
2023/04/10 03:24:26;;;;;;;0.73;0.17;;;21.80;46.20;;;;;;5047826;28;20041;-67
2023/04/10 03:26:55;;;;;;;4.22;2.55;;;21.70;45.00;;;;;;5050355;28;20516;-67
2023/04/10 03:29:23;;;;;;;5.90;3.67;;;21.70;45.50;;;;;;5057609;28;20055;-73
2023/04/10 03:31:50;;;;;;;1.45;0.70;;;21.50;46.80;;;;;;5052582;28;20263;-70
2023/04/10 03:34:21;;;;;;;2.45;1.00;;;21.50;47.50;;;;;;5064011;28;20024;-67
2023/04/10 03:36:48;;;;;;;3.50;1.17;;;21.60;46.90;;;;;;5062332;28;20049;-68
2023/04/10 03:39:15;;;;;;;0.35;0.20;;;21.70;46.20;;;;;;5060515;28;20029;-70
2023/04/10 03:41:43;;;;;;;0.10;0.10;;;21.60;44.40;;;;;;5056211;28;20044;-64
2023/04/10 03:44:13;;;;;;;0.55;0.30;;;21.60;46.90;;;;;;5056418;28;20398;-65
2023/04/10 03:46:41;;;;;;;1.08;0.40;;;21.40;47.10;;;;;;5054253;28;20037;-65
2023/04/10 03:49:08;;;;;;;0.60;0.20;;;21.50;47.50;;;;;;5075772;28;20028;-65
2023/04/10 03:51:36;;;;;;;3.70;1.83;;;21.40;47.10;;;;;;5059202;28;20029;-69
2023/04/10 03:54:03;;;;;;;0.47;0.38;;;21.40;47.20;;;;;;5054015;28;20024;-65
2023/04/10 03:56:30;;;;;;;0.80;0.20;;;21.50;44.50;;;;;;5059301;28;20037;-63
2023/04/10 03:58:58;;;;;;;0.70;0.20;;;21.40;46.00;;;;;;5054754;28;20033;-64
2023/04/10 04:01:25;;;;;;;1.65;0.30;;;21.40;45.70;;;;;;5060316;28;20494;-67
2023/04/10 04:03:53;;;;;;;2.42;0.40;;;21.00;44.90;;;;;;5058655;28;20068;-66
2023/04/10 04:06:20;;;;;;;1.88;0.40;;;21.10;46.20;;;;;;5055210;28;20037;-66
2023/04/10 04:08:47;;;;;;;0.73;0.25;;;21.20;45.30;;;;;;5056264;28;20056;-65
2023/04/10 04:11:15;;;;;;;2.53;0.40;;;21.20;44.70;;;;;;5055472;28;20503;-67
2023/04/10 04:13:42;;;;;;;2.22;0.40;;;21.10;45.40;;;;;;5058151;28;20692;-66
2023/04/10 04:16:10;;;;;;;1.60;0.40;;;21.00;45.30;;;;;;5061196;28;20544;-64
2023/04/10 04:18:37;;;;;;;0.70;0.30;;;20.90;45.10;;;;;;5065347;28;20040;-65
2023/04/10 04:21:07;;;;;;;0.30;0.15;;;20.80;46.00;;;;;;5067121;28;20584;-65
2023/04/10 04:23:34;;;;;;;0.95;0.38;;;20.90;47.50;;;;;;5063295;28;20036;-69
2023/04/10 04:26:02;;;;;;;0.70;0.32;;;21.00;44.30;;;;;;5064322;28;20543;-64
2023/04/10 04:28:29;;;;;;;1.77;0.40;;;21.00;43.60;;;;;;5068300;28;20025;-65
2023/04/10 04:30:56;;;;;;;0.73;0.30;;;21.00;46.90;;;;;;5051065;28;21033;-67
2023/04/10 04:33:24;;;;;;;2.17;0.28;;;20.90;45.60;;;;;;5055751;28;20028;-65
2023/04/10 04:35:52;;;;;;;0.88;0.20;;;21.00;46.00;;;;;;5062091;28;20033;-68
2023/04/10 04:38:19;;;;;;;7.90;0.98;;;20.90;45.20;;;;;;5054978;28;20112;-64
2023/04/10 04:40:47;;;;;;;3.17;1.15;;;20.90;46.20;;;;;;5052463;28;20029;-64
2023/04/10 04:43:14;;;;;;;5.40;0.60;;;20.90;47.50;;;;;;5065210;28;20031;-66
2023/04/10 04:45:42;;;;;;;0.43;0.22;;;20.90;47.70;;;;;;5061393;28;20024;-66
2023/04/10 04:48:09;;;;;;;0.95;0.47;;;21.00;46.20;;;;;;5057221;28;20024;-65
2023/04/10 04:50:39;;;;;;;1.75;0.40;;;20.90;46.80;;;;;;5064441;28;20135;-72
2023/04/10 04:53:07;;;;;;;2.42;0.35;;;20.90;46.50;;;;;;5067226;28;20604;-66
2023/04/10 04:55:34;;;;;;;1.80;0.38;;;20.80;46.90;;;;;;5055103;28;20522;-67
2023/04/10 04:58:02;;;;;;;4.35;0.40;;;20.70;46.30;;;;;;5051431;28;20029;-66
2023/04/10 05:00:29;;;;;;;2.33;0.38;;;20.80;47.80;;;;;;5044739;28;20579;-64
2023/04/10 05:02:57;;;;;;;2.33;0.32;;;20.80;45.90;;;;;;5057474;28;20024;-64
2023/04/10 05:05:25;;;;;;;0.57;0.35;;;20.70;45.70;;;;;;5061064;28;20117;-63
2023/04/10 05:07:52;;;;;;;1.58;0.47;;;20.60;46.60;;;;;;5064930;28;20280;-62
2023/04/10 05:10:20;;;;;;;0.40;0.30;;;20.50;47.00;;;;;;5054225;28;20032;-60
2023/04/10 05:12:48;;;;;;;1.20;0.35;;;20.50;46.30;;;;;;5051128;28;20029;-63
2023/04/10 05:15:15;;;;;;;0.55;0.20;;;20.50;47.90;;;;;;5053730;28;20025;-61
2023/04/10 05:17:43;;;;;;;1.88;0.40;;;20.40;46.70;;;;;;5057785;28;20032;-61
2023/04/10 05:20:11;;;;;;;2.53;0.50;;;20.30;46.40;;;;;;5050776;28;20029;-62
2023/04/10 05:22:38;;;;;;;1.60;0.40;;;20.20;46.70;;;;;;5056451;28;20126;-62
2023/04/10 05:25:06;;;;;;;1.08;0.30;;;20.20;47.30;;;;;;5055553;28;20489;-62
2023/04/10 05:27:34;;;;;;;0.98;0.60;;;20.20;46.10;;;;;;5066537;28;20489;-63
2023/04/10 05:30:02;;;;;;;0.63;0.20;;;20.10;45.90;;;;;;5052322;28;20162;-64
2023/04/10 05:32:30;;;;;;;1.45;0.60;;;20.10;47.40;;;;;;5052922;28;20045;-61
2023/04/10 05:34:57;;;;;;;0.70;0.20;;;20.10;48.50;;;;;;5067940;28;20020;-61
2023/04/10 05:37:24;;;;;;;1.55;0.85;;;20.10;47.80;;;;;;5059736;28;20035;-61
2023/04/10 05:39:52;;;;;;;1.58;0.25;;;20.10;48.00;;;;;;5058697;28;20148;-61
2023/04/10 05:42:19;;;;;;;1.13;0.50;;;20.10;47.60;;;;;;5067511;28;20036;-64
2023/04/10 05:44:47;;;;;;;1.52;0.50;;;20.00;49.30;;;;;;5049238;28;20045;-62
2023/04/10 05:47:14;;;;;;;2.00;0.20;;;20.00;49.20;;;;;;5053746;28;20065;-64
2023/04/10 05:49:41;;;;;;;0.28;0.20;;;19.90;48.70;;;;;;5056125;28;20031;-64
2023/04/10 05:52:09;;;;;;;2.75;0.60;;;19.80;48.60;;;;;;5053808;28;20025;-66
2023/04/10 05:54:36;;;;;;;4.40;0.30;;;19.80;50.10;;;;;;5063530;28;20024;-67
2023/04/10 05:57:04;;;;;;;3.58;0.55;;;19.80;49.00;;;;;;5052178;28;20074;-64
2023/04/10 05:59:31;;;;;;;1.75;0.45;;;19.80;50.00;;;;;;5049523;28;20029;-68
2023/04/10 06:01:59;;;;;;;1.85;0.30;;;19.80;50.90;;;;;;5050196;28;20502;-65
2023/04/10 06:04:27;;;;;;;2.08;0.40;;;19.80;49.50;;;;;;5056297;28;20037;-64
2023/04/10 06:06:54;;;;;;;0.88;0.28;;;19.70;49.70;;;;;;5054509;28;20053;-65
2023/04/10 06:09:22;;;;;;;1.25;0.43;;;19.60;48.90;;;;;;5060572;28;20048;-62
2023/04/10 06:11:49;;;;;;;1.77;0.38;;;19.60;50.50;;;;;;5058833;28;20029;-62
2023/04/10 06:14:19;;;;;;;2.47;0.40;;;19.50;50.20;;;;;;5057777;28;20517;-61
2023/04/10 06:16:46;;;;;;;0.93;0.32;;;19.50;50.00;;;;;;5065127;28;20021;-60
2023/04/10 06:19:14;;;;;;;2.65;0.47;;;19.40;49.50;;;;;;5066344;28;20059;-60
2023/04/10 06:21:41;;;;;;;1.05;0.20;;;19.30;49.60;;;;;;5060353;28;20037;-62
2023/04/10 06:24:09;;;;;;;0.63;0.20;;;19.20;50.40;;;;;;5047439;28;20033;-63
2023/04/10 06:26:37;;;;;;;21.25;1.17;;;19.20;50.20;;;;;;5047968;28;20508;-64
2023/04/10 06:29:05;;;;;;;0.93;0.20;;;19.10;50.00;;;;;;5052649;28;20064;-63
2023/04/10 06:31:35;;;;;;;1.08;0.70;;;19.10;50.10;;;;;;5058073;28;20396;-63
2023/04/10 06:34:03;;;;;;;1.45;0.50;;;19.00;50.40;;;;;;5055129;28;20535;-64
2023/04/10 06:36:30;;;;;;;2.10;0.20;;;18.90;50.30;;;;;;5059768;28;20033;-65
2023/04/10 06:38:57;;;;;;;0.28;0.20;;;18.80;50.60;;;;;;5061618;28;20139;-63
2023/04/10 06:41:25;;;;;;;1.52;0.52;;;18.80;50.60;;;;;;5047527;28;20025;-64
2023/04/10 06:43:52;;;;;;;0.85;0.20;;;18.70;51.50;;;;;;5051602;28;20028;-63
2023/04/10 06:46:20;;;;;;;1.08;0.28;;;18.60;51.70;;;;;;5057630;28;20032;-65
2023/04/10 06:48:47;;;;;;;1.50;0.35;;;18.60;51.60;;;;;;5053718;28;20108;-65
2023/04/10 06:51:15;;;;;;;1.45;0.30;;;18.50;51.60;;;;;;5062076;28;20441;-64
2023/04/10 06:53:42;;;;;;;0.90;0.20;;;18.40;51.50;;;;;;5060132;28;20386;-59
2023/04/10 06:56:10;;;;;;;0.50;0.30;;;18.30;50.90;;;;;;5053791;28;20029;-60
2023/04/10 06:58:37;;;;;;;0.93;0.20;;;18.30;52.20;;;;;;5045563;28;20052;-61
2023/04/10 07:01:05;;;;;;;2.30;0.35;;;18.20;52.70;;;;;;5051551;28;20478;-59
2023/04/10 07:03:33;;;;;;;2.70;0.30;;;18.10;53.20;;;;;;5054464;28;20495;-60
2023/04/10 07:06:02;;;;;;;0.70;0.22;;;18.00;53.60;;;;;;5064625;28;20057;-61
2023/04/10 07:08:29;;;;;;;1.52;0.50;;;17.90;54.30;;;;;;5064819;28;20021;-59
2023/04/10 07:10:56;;;;;;;1.55;0.20;;;17.80;54.80;;;;;;5052000;28;20704;-61
2023/04/10 07:13:24;;;;;;;1.48;0.40;;;17.70;54.40;;;;;;5057828;28;20045;-61
2023/04/10 07:15:51;;;;;;;0.40;0.20;;;17.60;55.40;;;;;;5058071;28;20393;-63
2023/04/10 07:18:19;;;;;;;1.05;0.50;;;17.50;55.50;;;;;;5058281;28;20032;-62
2023/04/10 07:20:47;;;;;;;1.60;0.60;;;17.40;56.00;;;;;;5059680;28;20025;-64
2023/04/10 07:23:15;;;;;;;0.95;0.30;;;17.30;57.10;;;;;;5068690;28;20094;-61
2023/04/10 07:25:43;;;;;;;1.63;0.50;;;17.10;57.30;;;;;;5060956;28;20485;-60
2023/04/10 07:28:10;;;;;;;1.00;0.50;;;17.10;57.70;;;;;;5067982;28;20032;-63
2023/04/10 07:30:37;;;;;;;1.13;0.50;;;17.00;57.40;;;;;;5052763;28;20029;-62
2023/04/10 07:33:05;;;;;;;1.33;0.60;;;16.80;58.10;;;;;;5067781;28;20031;-62
2023/04/10 07:35:32;;;;;;;1.95;0.55;;;16.70;58.40;;;;;;5073142;28;20381;-61
2023/04/10 07:38:00;;;;;;;1.55;0.70;;;16.70;59.00;;;;;;5072468;28;20532;-62
2023/04/10 07:40:28;;;;;;;2.28;1.13;;;16.60;59.00;;;;;;5064839;28;20046;-62
2023/04/10 07:42:55;;;;;;;0.93;0.60;;;16.60;60.00;;;;;;5052498;28;20493;-61
2023/04/10 07:45:23;;;;;;;1.60;0.60;;;16.40;60.20;;;;;;5066156;28;20130;-62
2023/04/10 07:47:50;;;;;;;1.75;0.65;;;16.30;60.50;;;;;;5073641;28;20019;-62
2023/04/10 07:50:17;;;;;;;1.95;0.57;;;16.30;60.90;;;;;;5060483;28;20037;-61
2023/04/10 07:52:45;;;;;;;4.20;1.42;;;16.10;61.50;;;;;;5070511;28;20016;-61
2023/04/10 07:55:12;;;;;;;1.83;0.40;;;16.00;62.10;;;;;;5066585;28;20028;-61
2023/04/10 07:57:40;;;;;;;3.33;0.70;;;15.90;62.40;;;;;;5051064;28;20033;-61
2023/04/10 08:00:08;;;;;;;1.05;0.60;;;15.80;63.30;;;;;;5071179;28;20065;-61
2023/04/10 08:02:35;;;;;;;7.53;1.08;;;15.70;63.70;;;;;;5069969;28;20119;-61
2023/04/10 08:05:03;;;;;;;3.38;0.82;;;15.50;64.00;;;;;;5068491;28;20051;-60
2023/04/10 08:07:30;;;;;;;1.42;0.60;;;15.40;64.80;;;;;;5045847;28;20053;-62
2023/04/10 08:09:58;;;;;;;2.88;0.80;;;15.30;65.70;;;;;;5050886;28;20118;-60
2023/04/10 08:12:25;;;;;;;3.78;0.80;;;15.10;66.40;;;;;;5049798;28;20036;-59
2023/04/10 08:14:53;;;;;;;1.23;0.70;;;15.00;67.80;;;;;;5049224;28;20086;-60
2023/04/10 08:17:20;;;;;;;2.38;1.17;;;15.00;68.20;;;;;;5050029;28;20029;-60
2023/04/10 08:19:48;;;;;;;4.32;1.38;;;14.90;68.50;;;;;;5045654;28;20030;-60
2023/04/10 08:22:15;;;;;;;3.08;0.90;;;14.80;70.00;;;;;;5047185;28;20029;-59
2023/04/10 08:24:42;;;;;;;3.63;0.63;;;14.60;70.50;;;;;;5027806;28;20244;-59
2023/04/10 08:27:10;;;;;;;2.65;0.75;;;14.50;71.20;;;;;;5030268;28;20082;-59
2023/04/10 08:29:37;;;;;;;2.72;1.00;;;14.40;72.10;;;;;;5047543;28;20033;-59
2023/04/10 08:32:05;;;;;;;1.92;0.80;;;14.30;72.70;;;;;;5046263;28;20032;-59
2023/04/10 08:34:32;;;;;;;1.50;0.52;;;14.20;74.20;;;;;;5048920;28;20032;-60
2023/04/10 08:37:00;;;;;;;2.40;0.60;;;14.10;75.60;;;;;;5050135;28;20034;-57
2023/04/10 08:39:27;;;;;;;2.28;0.75;;;14.00;76.40;;;;;;5061048;28;20685;-61
2023/04/10 08:41:55;;;;;;;3.88;0.70;;;14.00;78.10;;;;;;5038198;28;20037;-62
2023/04/10 08:44:22;;;;;;;1.88;0.52;;;14.00;79.40;;;;;;5034655;28;20820;-61
2023/04/10 08:46:51;;;;;;;3.97;0.60;;;13.90;79.90;;;;;;5040485;28;20026;-62
2023/04/10 08:49:44;;;;;;;1.08;0.40;;;13.80;81.30;;;;;;5038131;28;20032;-61
2023/04/10 08:52:20;;;;;;;2.38;0.63;;;13.70;82.40;;;;;;5033468;28;20021;-58
2023/04/10 08:54:53;;;;;;;1.40;0.65;;;13.70;83.00;;;;;;5034128;28;20021;-61
2023/04/10 08:57:21;;;;;;;1.60;0.82;;;13.60;84.40;;;;;;5034435;28;20033;-63
2023/04/10 08:59:50;;;;;;;2.17;0.50;;;13.70;85.40;;;;;;5054071;28;20032;-65
2023/04/10 09:02:18;;;;;;;4.28;0.90;;;13.60;85.70;;;;;;5037400;28;20027;-65
2023/04/10 09:04:51;;;;;;;1.77;0.73;;;13.70;87.10;;;;;;5038009;28;20082;-64
2023/04/10 09:07:18;;;;;;;0.80;0.52;;;13.70;87.70;;;;;;5072536;28;20048;-64
2023/04/10 09:09:46;;;;;;;3.05;0.70;;;13.70;89.20;;;;;;5064830;28;20099;-64
2023/04/10 09:12:14;;;;;;;4.75;1.10;;;13.70;89.60;;;;;;5053540;28;20098;-64
2023/04/10 09:14:43;;;;;;;3.53;0.82;;;13.70;89.50;;;;;;5056453;28;20804;-64
2023/04/10 09:17:22;;;;;;;1.90;0.60;;;13.70;90.00;;;;;;5061273;28;20048;-64
2023/04/10 09:19:56;;;;;;;1.70;0.50;;;13.80;90.50;;;;;;5057289;28;20056;-63
2023/04/10 09:22:31;;;;;;;3.10;0.60;;;13.80;90.80;;;;;;5055928;28;20021;-64
2023/04/10 09:25:00;;;;;;;3.53;0.50;;;13.80;90.70;;;;;;5055827;28;20405;-64
2023/04/10 09:27:34;;;;;;;4.97;1.05;;;13.80;91.10;;;;;;5051807;28;20559;-64
2023/04/10 09:30:02;;;;;;;3.27;0.50;;;13.80;91.30;;;;;;5050953;28;20368;-64
2023/04/10 09:32:44;;;;;;;2.85;0.77;;;13.80;91.50;;;;;;5055468;28;20293;-65
2023/04/10 09:35:13;;;;;;;1.63;0.75;;;13.80;92.00;;;;;;5051980;28;20036;-64
2023/04/10 09:37:43;;;;;;;3.30;1.10;;;13.80;92.00;;;;;;5054285;28;20589;-64
2023/04/10 09:40:25;;;;;;;1.73;0.47;;;13.70;92.50;;;;;;5048822;28;20025;-64
2023/04/10 09:42:55;;;;;;;2.25;0.70;;;13.60;93.10;;;;;;5053395;28;20571;-65
2023/04/10 09:45:22;;;;;;;3.03;0.70;;;13.50;93.80;;;;;;5058876;28;20048;-64
2023/04/10 09:48:07;;;;;;;2.65;0.68;;;13.40;94.60;;;;;;5052916;28;20079;-65
2023/04/10 09:50:36;;;;;;;1.77;0.45;;;13.30;95.40;;;;;;5058483;28;20393;-64
2023/04/10 09:53:03;;;;;;;1.98;0.55;;;13.30;96.10;;;;;;5054950;28;20024;-66
2023/04/10 09:55:31;;;;;;;3.05;0.75;;;13.20;96.60;;;;;;5054939;28;20029;-65
2023/04/10 09:57:59;;;;;;;1.73;0.60;;;13.10;97.50;;;;;;5049660;28;20020;-65
2023/04/10 10:00:27;;;;;;;1.38;0.55;;;13.00;98.40;;;;;;5051616;28;20103;-65
2023/04/10 10:02:58;;;;;;;2.35;0.50;;;13.00;98.60;;;;;;5055854;28;20118;-65
2023/04/10 10:05:29;;;;;;;1.65;0.40;;;12.90;99.20;;;;;;5054697;28;20053;-64
2023/04/10 10:07:57;;;;;;;3.75;0.68;;;12.80;99.60;;;;;;5050975;28;20033;-64
2023/04/10 10:10:25;;;;;;;1.42;0.50;;;12.70;99.90;;;;;;5059753;28;20041;-64
2023/04/10 10:12:56;;;;;;;3.83;0.70;;;12.80;99.90;;;;;;5053461;28;20505;-64
2023/04/10 10:16:10;;;;;;;2.90;0.60;;;12.80;99.70;;;;;;5048339;28;20042;-64
2023/04/10 10:18:49;;;;;;;1.60;0.60;;;12.90;99.80;;;;;;5033595;28;20049;-64
2023/04/10 10:21:18;;;;;;;1.63;0.52;;;12.80;99.70;;;;;;5052574;28;20517;-64
2023/04/10 10:23:47;;;;;;;1.52;0.75;;;12.90;99.80;;;;;;5047759;28;20028;-64
2023/04/10 10:26:18;;;;;;;2.42;0.38;;;12.90;99.80;;;;;;5053033;28;20036;-65
2023/04/10 10:28:47;;;;;;;2.13;0.47;;;12.90;99.90;;;;;;5052346;28;20059;-64
2023/04/10 10:31:17;;;;;;;1.80;0.60;;;12.90;99.90;;;;;;5049329;28;20033;-65
2023/04/10 10:33:46;;;;;;;2.13;0.52;;;12.80;99.90;;;;;;5052889;28;20028;-64
2023/04/10 10:36:17;;;;;;;0.90;0.60;;;12.70;99.90;;;;;;5050659;28;20017;-64
2023/04/10 10:39:18;;;;;;;2.58;0.60;;;12.50;99.90;;;;;;5060586;28;20085;-64
2023/04/10 10:42:40;;;;;;;3.08;0.52;;;12.20;99.90;;;;;;5038144;28;20575;-65
2023/04/10 10:45:18;;;;;;;1.73;0.75;;;12.00;99.90;;;;;;5013755;28;20041;-64
2023/04/10 10:47:51;;;;;;;1.02;0.40;;;12.00;99.90;;;;;;5058748;28;20182;-65
2023/04/10 10:50:19;;;;;;;3.47;0.60;;;12.10;99.90;;;;;;5048862;28;20393;-63
2023/04/10 10:52:52;;;;;;;1.70;0.80;;;12.10;99.90;;;;;;5055277;28;20524;-64
2023/04/10 10:55:34;;;;;;;4.30;0.70;;;12.20;99.90;;;;;;5051421;28;20571;-63
2023/04/10 10:58:04;;;;;;;1.25;0.40;;;12.30;99.90;;;;;;5063154;28;20029;-64
2023/04/10 11:00:50;;;;;;;1.95;0.55;;;12.40;99.90;;;;;;5046881;28;20029;-65
2023/04/10 11:03:17;;;;;;;3.78;0.65;;;12.40;99.90;;;;;;5063067;28;20099;-65
2023/04/10 11:05:57;;;;;;;0.63;0.40;;;12.40;99.90;;;;;;5058110;28;20147;-65
2023/04/10 11:08:38;;;;;;;0.93;0.35;;;12.30;99.90;;;;;;5053049;28;20024;-64
2023/04/10 11:11:20;;;;;;;1.88;0.60;;;12.10;99.90;;;;;;5059398;28;20028;-64
2023/04/10 11:13:56;;;;;;;2.03;0.63;;;11.90;99.90;;;;;;5057650;28;20056;-64
2023/04/10 11:16:45;;;;;;;0.57;0.35;;;11.90;99.90;;;;;;5054524;28;20028;-64
2023/04/10 11:19:15;;;;;;;2.85;0.70;;;11.80;99.90;;;;;;5051205;28;20087;-64
2023/04/10 11:22:07;;;;;;;2.20;0.50;;;11.60;99.90;;;;;;5058941;28;20032;-64
2023/04/10 11:24:52;;;;;;;2.40;0.65;;;11.60;99.90;;;;;;5053758;28;20045;-65
2023/04/10 11:27:58;;;;;;;1.90;0.70;;;11.40;99.90;;;;;;5053127;28;20021;-64
2023/04/10 11:30:32;;;;;;;1.38;0.50;;;11.30;99.90;;;;;;4956906;28;20037;-63
2023/04/10 11:33:01;;;;;;;1.90;0.68;;;11.10;99.90;;;;;;4984233;28;20034;-64
2023/04/10 11:35:30;;;;;;;1.02;0.50;;;11.00;99.90;;;;;;5022792;28;20055;-63
2023/04/10 11:38:26;;;;;;;2.65;0.70;;;10.90;99.90;;;;;;5049949;28;20032;-63
2023/04/10 11:41:03;;;;;;;1.83;0.60;;;10.80;99.90;;;;;;5041770;28;20040;-63
2023/04/10 11:43:31;;;;;;;2.40;0.80;;;10.70;99.90;;;;;;5053829;28;20025;-63
2023/04/10 11:46:06;;;;;;;2.13;0.70;;;10.50;99.90;;;;;;5060644;28;20419;-64
2023/04/10 11:48:35;;;;;;;3.67;0.73;;;10.40;99.90;;;;;;5064240;28;20062;-63
2023/04/10 11:51:13;;;;;;;1.95;0.55;;;10.30;99.90;;;;;;5067541;28;20500;-66
2023/04/10 11:53:41;;;;;;;2.25;0.80;;;10.40;99.90;;;;;;5059188;28;20040;-63
2023/04/10 11:56:20;;;;;;;3.28;1.02;;;10.50;99.90;;;;;;5062012;28;20017;-64
2023/04/10 11:58:52;;;;;;;2.15;0.70;;;10.50;99.90;;;;;;5055290;28;20056;-64
2023/04/10 12:01:22;;;;;;;1.67;0.50;;;10.50;99.90;;;;;;5059137;28;20036;-64
2023/04/10 12:03:50;;;;;;;2.65;0.50;;;10.60;99.90;;;;;;5053328;28;20036;-64
2023/04/10 12:06:20;;;;;;;1.77;0.50;;;10.60;99.90;;;;;;5058205;28;20047;-64
2023/04/10 12:08:49;;;;;;;0.90;0.40;;;10.50;99.90;;;;;;5055377;28;20108;-64
2023/04/10 12:11:28;;;;;;;1.42;0.68;;;10.40;99.90;;;;;;5069962;28;20028;-64
2023/04/10 12:13:57;;;;;;;4.10;0.70;;;10.20;99.90;;;;;;5063367;28;20024;-63
2023/04/10 12:16:26;;;;;;;1.48;0.52;;;10.10;99.90;;;;;;5057528;28;20052;-64
2023/04/10 12:18:54;;;;;;;1.15;0.32;;;9.90;99.90;;;;;;5060937;28;20032;-63
2023/04/10 12:21:22;;;;;;;1.52;0.63;;;9.70;99.90;;;;;;5073932;28;20489;-64
2023/04/10 12:23:49;;;;;;;2.55;0.70;;;9.60;99.90;;;;;;5062612;28;20041;-64
2023/04/10 12:26:18;;;;;;;4.97;0.88;;;9.50;99.90;;;;;;5071618;28;20031;-64
2023/04/10 12:28:57;;;;;;;2.10;0.77;;;9.30;99.90;;;;;;5062306;28;20053;-64
2023/04/10 12:31:32;;;;;;;2.05;0.60;;;9.20;99.90;;;;;;5055894;28;20024;-64
2023/04/10 12:34:00;;;;;;;2.25;1.10;;;9.20;99.90;;;;;;5075875;28;20040;-63
2023/04/10 12:36:30;;;;;;;4.30;0.90;;;9.10;99.90;;;;;;5077863;28;20420;-63
2023/04/10 12:38:59;;;;;;;2.13;0.88;;;9.10;99.90;;;;;;5066282;28;20036;-64
2023/04/10 12:41:29;;;;;;;1.27;0.50;;;9.00;99.90;;;;;;5058657;28;20107;-63
2023/04/10 12:44:13;;;;;;;3.53;0.80;;;8.90;99.90;;;;;;5057432;28;20079;-63
2023/04/10 12:46:43;;;;;;;3.10;1.05;;;8.80;99.90;;;;;;5063440;28;20028;-64
2023/04/10 12:49:15;;;;;;;1.70;0.93;;;8.80;99.90;;;;;;5065511;28;20028;-63
2023/04/10 12:52:01;;;;;;;2.35;0.82;;;8.70;99.90;;;;;;5063851;28;20028;-63
2023/04/10 12:54:32;;;;;;;;;;;8.70;99.90;;;;;;5068978;28;20020;-63
2023/04/10 12:57:00;;;;;;;2.03;0.85;;;8.60;99.90;;;;;;5059201;28;19909;-63
2023/04/10 12:59:28;;;;;;;2.70;1.30;;;8.60;99.90;;;;;;5071999;28;20039;-63
2023/04/10 13:01:56;;;;;;;2.00;1.00;;;8.50;99.90;;;;;;5065772;28;20033;-63
2023/04/10 13:04:24;;;;;;;2.47;0.93;;;8.40;99.90;;;;;;5058341;28;20044;-63